createdAt,value
2022-08-19T00:04:53.814Z,11.73
2022-08-19T00:09:56.893Z,13.63
2022-08-19T00:15:04.334Z,12.82
2022-08-19T00:20:11.784Z,11.52
2022-08-19T00:25:14.258Z,10.77
2022-08-19T00:30:17.736Z,12.20
2022-08-19T00:35:19.584Z,13.05
2022-08-19T00:40:21.990Z,10.57
2022-08-19T00:45:26.881Z,11.93
2022-08-19T00:50:29.152Z,12.07
2022-08-19T00:55:32.175Z,9.13
2022-08-19T01:00:37.966Z,12.57
2022-08-19T01:05:48.413Z,7.97
2022-08-19T01:10:59.883Z,10.93
2022-08-19T01:16:08.406Z,11.73
2022-08-19T01:21:34.689Z,8.35
2022-08-19T01:26:45.818Z,7.65
2022-08-19T01:31:53.098Z,9.13
2022-08-19T01:36:54.980Z,8.27
2022-08-19T01:41:56.838Z,7.50
2022-08-19T01:47:04.734Z,6.95
2022-08-19T01:52:07.090Z,7.47
2022-08-19T01:57:13.686Z,6.63
2022-08-19T02:02:23.025Z,7.57
2022-08-19T02:07:29.289Z,5.68
2022-08-19T02:12:33.168Z,7.13
2022-08-19T02:17:35.002Z,6.75
2022-08-19T02:22:36.843Z,6.78
2022-08-19T02:27:39.651Z,7.50
2022-08-19T02:32:46.040Z,6.13
2022-08-19T02:38:10.449Z,7.20
2022-08-19T02:43:12.340Z,6.72
2022-08-19T02:48:21.421Z,10.10
2022-08-19T02:53:27.051Z,8.57
2022-08-19T02:58:31.464Z,10.18
2022-08-19T03:03:35.432Z,7.07
2022-08-19T03:08:38.366Z,9.35
2022-08-19T03:13:44.267Z,7.80
2022-08-19T03:18:50.778Z,7.53
2022-08-19T03:23:56.485Z,10.45
2022-08-19T03:29:05.585Z,7.03
2022-08-19T03:34:12.670Z,6.28
2022-08-19T03:39:18.522Z,7.18
2022-08-19T03:44:26.468Z,11.55
2022-08-19T03:49:31.072Z,8.30
2022-08-19T03:54:35.484Z,10.25
2022-08-19T03:59:42.709Z,9.02
2022-08-19T04:04:45.037Z,10.00
2022-08-19T04:09:46.831Z,11.52
2022-08-19T04:14:50.922Z,19.52
2022-08-19T04:19:52.824Z,14.45
2022-08-19T04:24:56.629Z,17.10
2022-08-19T04:30:04.121Z,19.40
2022-08-19T04:35:17.517Z,19.98
2022-08-19T04:40:39.312Z,14.80
2022-08-19T04:45:49.523Z,14.30
2022-08-19T04:51:07.734Z,22.67
2022-08-19T04:56:11.046Z,19.52
2022-08-19T05:01:24.103Z,17.25
2022-08-19T05:06:29.709Z,19.13
2022-08-19T05:11:34.960Z,23.90
2022-08-19T05:16:36.899Z,18.40
2022-08-19T05:21:59.201Z,18.38
2022-08-19T05:27:01.715Z,17.65
2022-08-19T05:32:10.403Z,21.02
2022-08-19T05:37:12.192Z,19.63
2022-08-19T05:42:16.540Z,19.75
2022-08-19T05:47:23.091Z,19.42
2022-08-19T05:52:31.683Z,18.80
2022-08-19T05:57:33.645Z,16.00
2022-08-19T06:02:40.607Z,16.98
2022-08-19T06:07:45.879Z,16.70
2022-08-19T06:12:47.759Z,14.43
2022-08-19T06:17:54.294Z,18.00
2022-08-19T06:22:56.145Z,17.75
2022-08-19T06:28:14.758Z,14.77
2022-08-19T06:33:17.338Z,18.73
2022-08-19T06:38:24.493Z,14.45
2022-08-19T06:43:29.153Z,16.42
2022-08-19T06:48:31.575Z,13.02
2022-08-19T06:53:35.044Z,13.40
2022-08-19T06:58:39.144Z,12.48
2022-08-19T07:03:43.169Z,10.32
2022-08-19T07:08:48.659Z,11.68
2022-08-19T07:13:52.193Z,15.25
2022-08-19T07:18:57.496Z,11.27
2022-08-19T07:24:05.346Z,8.43
2022-08-19T07:29:12.234Z,6.15
2022-08-19T07:34:19.928Z,17.10
2022-08-19T07:39:28.555Z,5.60
2022-08-19T07:44:31.444Z,8.02
2022-08-19T07:49:38.439Z,4.78
2022-08-19T07:54:44.153Z,10.70
2022-08-19T07:59:46.899Z,5.93
2022-08-19T08:05:08.301Z,3.63
2022-08-19T08:10:20.748Z,10.05
2022-08-19T08:15:23.272Z,7.65
2022-08-19T08:20:30.566Z,7.65
2022-08-19T08:25:36.441Z,5.57
2022-08-19T08:30:45.086Z,7.68
2022-08-19T08:35:47.567Z,5.70
2022-08-19T08:40:55.749Z,6.30
2022-08-19T08:46:31.001Z,4.78
2022-08-19T08:51:59.355Z,4.18
2022-08-19T08:57:13.908Z,5.03
2022-08-19T09:02:20.746Z,4.57
2022-08-19T09:07:35.268Z,5.63
2022-08-19T09:13:09.427Z,4.15
2022-08-19T09:18:15.182Z,4.80
2022-08-19T09:23:26.541Z,5.90
2022-08-19T09:28:34.043Z,4.50
2022-08-19T09:33:36.439Z,4.55
2022-08-19T09:38:43.409Z,4.35
2022-08-19T09:43:53.076Z,4.78
2022-08-19T09:49:06.266Z,5.85
2022-08-19T09:54:11.222Z,5.47
2022-08-19T09:59:13.431Z,4.38
2022-08-19T10:04:20.472Z,4.20
2022-08-19T10:09:35.067Z,3.03
2022-08-19T10:14:37.961Z,5.13
2022-08-19T10:19:41.913Z,3.58
2022-08-19T10:24:58.697Z,3.65
2022-08-19T10:30:02.113Z,6.13
2022-08-19T10:35:09.047Z,3.15
2022-08-19T10:40:14.631Z,2.88
2022-08-19T10:45:16.504Z,3.33
2022-08-19T10:50:36.623Z,5.45
2022-08-19T10:56:04.290Z,4.00
2022-08-19T11:01:09.127Z,6.13
2022-08-19T11:06:10.960Z,3.17
2022-08-19T11:11:13.350Z,4.55
2022-08-19T11:16:17.937Z,3.47
2022-08-19T11:21:25.481Z,5.20
2022-08-19T11:26:33.497Z,2.97
2022-08-19T11:31:37.235Z,4.37
2022-08-19T11:36:46.824Z,4.53
2022-08-19T11:41:51.352Z,1.92
2022-08-19T11:46:53.744Z,4.15
2022-08-19T11:51:55.515Z,4.80
2022-08-19T11:56:57.274Z,4.18
2022-08-19T12:02:00.167Z,4.72
2022-08-19T12:07:02.890Z,4.65
2022-08-19T12:12:05.174Z,5.22
2022-08-19T12:17:12.449Z,3.53
2022-08-19T12:22:22.388Z,3.63
2022-08-19T12:27:40.292Z,2.67
2022-08-19T12:32:48.111Z,4.10
2022-08-19T12:37:56.977Z,3.47
2022-08-19T12:43:00.280Z,3.03
2022-08-19T12:48:02.127Z,3.08
2022-08-19T12:53:23.963Z,3.75
2022-08-19T12:58:27.506Z,2.65
2022-08-19T13:03:30.906Z,4.28
2022-08-19T13:08:33.652Z,3.22
2022-08-19T13:13:37.869Z,2.30
2022-08-19T13:18:48.286Z,3.13
2022-08-19T13:23:53.934Z,3.00
2022-08-19T13:29:14.714Z,2.67
2022-08-19T13:34:18.662Z,2.55
2022-08-19T13:39:26.117Z,3.75
2022-08-19T13:44:30.484Z,6.38
2022-08-19T13:49:37.207Z,4.55
2022-08-19T13:54:38.988Z,4.93
2022-08-19T13:59:42.966Z,3.38
2022-08-19T14:04:45.045Z,4.43
2022-08-19T14:09:46.811Z,5.22
2022-08-19T14:14:53.460Z,4.80
2022-08-19T14:20:10.926Z,3.58
2022-08-19T14:25:15.837Z,5.32
2022-08-19T14:30:20.948Z,6.22
2022-08-19T14:35:25.842Z,7.22
2022-08-19T14:40:31.203Z,3.78
2022-08-19T14:45:36.730Z,6.13
2022-08-19T14:50:39.360Z,7.88
2022-08-19T14:55:46.451Z,3.72
2022-08-19T15:00:50.294Z,6.13
2022-08-19T15:05:58.316Z,10.82
2022-08-19T15:11:00.885Z,3.70
2022-08-19T15:16:05.542Z,3.45
2022-08-19T15:21:13.442Z,4.03
2022-08-19T15:26:23.109Z,7.75
2022-08-19T15:31:28.165Z,6.28
2022-08-19T15:36:32.732Z,5.22
2022-08-19T15:41:34.887Z,2.65
2022-08-19T15:46:41.494Z,3.67
2022-08-19T15:51:45.321Z,2.03
2022-08-19T15:57:07.526Z,4.00
2022-08-19T16:02:32.644Z,4.68
2022-08-19T16:07:34.433Z,3.42
2022-08-19T16:12:41.387Z,1.90
2022-08-19T16:17:43.595Z,1.58
2022-08-19T16:22:59.352Z,2.42
2022-08-19T16:28:08.551Z,4.78
2022-08-19T16:33:10.801Z,5.45
2022-08-19T16:38:13.597Z,4.32
2022-08-19T16:43:17.568Z,2.45
2022-08-19T16:48:23.977Z,3.58
2022-08-19T16:53:31.816Z,3.35
2022-08-19T16:58:36.792Z,9.68
2022-08-19T17:03:41.245Z,9.07
2022-08-19T17:08:48.712Z,5.90
2022-08-19T17:13:56.683Z,2.72
2022-08-19T17:19:01.679Z,3.75
2022-08-19T17:24:08.690Z,2.00
2022-08-19T17:29:12.921Z,2.33
2022-08-19T17:34:17.309Z,4.50
2022-08-19T17:39:19.407Z,5.43
2022-08-19T17:44:25.597Z,2.78
2022-08-19T17:49:30.322Z,2.22
2022-08-19T17:54:37.329Z,6.47
2022-08-19T17:59:44.066Z,1.40
2022-08-19T18:04:51.133Z,3.03
2022-08-19T18:10:01.771Z,5.22
2022-08-19T18:15:10.153Z,3.65
2022-08-19T18:20:14.312Z,5.10
2022-08-19T18:25:28.217Z,2.40
2022-08-19T18:30:34.455Z,5.35
2022-08-19T18:35:39.388Z,5.10
2022-08-19T18:41:02.780Z,5.20
2022-08-19T18:46:36.993Z,7.57
2022-08-19T18:51:42.355Z,5.50
2022-08-19T18:56:44.846Z,5.70
2022-08-19T19:01:57.082Z,5.13
2022-08-19T19:07:03.722Z,4.18
2022-08-19T19:12:11.529Z,4.18
2022-08-19T19:17:14.813Z,5.88
2022-08-19T19:22:21.611Z,6.22
2022-08-19T19:27:23.338Z,6.28
2022-08-19T19:32:36.931Z,5.28
2022-08-19T19:37:40.538Z,5.32
2022-08-19T19:42:45.330Z,5.90
2022-08-19T19:47:50.107Z,5.97
2022-08-19T19:52:51.923Z,5.65
2022-08-19T19:57:54.960Z,6.00
2022-08-19T20:02:56.908Z,6.53
2022-08-19T20:08:19.709Z,5.32
2022-08-19T20:13:23.746Z,6.85
2022-08-19T20:18:26.064Z,6.57
2022-08-19T20:23:31.167Z,9.35
2022-08-19T20:28:36.937Z,9.07
2022-08-19T20:33:41.949Z,8.80
2022-08-19T20:38:43.826Z,9.32
2022-08-19T20:43:46.172Z,10.60
2022-08-19T20:48:48.011Z,8.65
2022-08-19T20:53:53.809Z,10.93
2022-08-19T20:58:59.940Z,10.32
2022-08-19T21:04:05.401Z,15.88
2022-08-19T21:09:09.396Z,14.02
2022-08-19T21:14:19.531Z,13.02
2022-08-19T21:19:29.547Z,13.38
2022-08-19T21:24:34.073Z,16.15
2022-08-19T21:29:39.046Z,14.80
2022-08-19T21:34:46.881Z,14.23
2022-08-19T21:39:49.584Z,18.08
2022-08-19T21:45:00.224Z,15.77
2022-08-19T21:50:05.487Z,19.40
2022-08-19T21:55:12.146Z,21.75
2022-08-19T22:00:20.439Z,20.27
2022-08-19T22:05:33.307Z,19.95
2022-08-19T22:10:37.552Z,18.58
2022-08-19T22:15:42.504Z,18.83
2022-08-19T22:20:45.076Z,21.63
2022-08-19T22:25:47.328Z,16.90
2022-08-19T22:30:51.333Z,17.95
2022-08-19T22:35:55.831Z,21.67
2022-08-19T22:41:00.137Z,17.27
2022-08-19T22:46:02.469Z,20.40
2022-08-19T22:51:25.295Z,20.33
2022-08-19T22:56:32.967Z,19.60
2022-08-19T23:01:41.752Z,18.25
2022-08-19T23:06:43.516Z,18.20
2022-08-19T23:11:48.028Z,19.27
2022-08-19T23:16:54.120Z,21.23
2022-08-19T23:22:00.739Z,20.20
2022-08-19T23:27:23.061Z,20.10
2022-08-19T23:32:26.240Z,22.38
2022-08-19T23:37:37.166Z,21.08
2022-08-19T23:42:47.185Z,22.42
2022-08-19T23:47:48.963Z,23.55
2022-08-19T23:52:57.391Z,23.10
2022-08-19T23:58:05.574Z,24.08
